createdAt,value
2023-04-11T00:02:24.430Z,100758.75
2023-04-11T00:05:31.376Z,100764.84
2023-04-11T00:08:33.830Z,100748.63
2023-04-11T00:11:36.264Z,100741.38
2023-04-11T00:14:38.637Z,100745.16
2023-04-11T00:17:41.689Z,100737.75
2023-04-11T00:20:44.061Z,100739.84
2023-04-11T00:23:46.403Z,100731.06
2023-04-11T00:26:48.724Z,100733.84
2023-04-11T00:29:53.013Z,100732.00
2023-04-11T00:32:55.821Z,100726.59
2023-04-11T00:35:58.411Z,100722.81
2023-04-11T00:39:03.980Z,100714.59
2023-04-11T00:42:09.281Z,100702.53
2023-04-11T00:45:12.192Z,100710.09
2023-04-11T00:48:15.028Z,100699.03
2023-04-11T00:51:18.622Z,100688.53
2023-04-11T00:54:21.341Z,100680.28
2023-04-11T00:57:26.123Z,100681.59
2023-04-11T01:00:29.182Z,100674.63
2023-04-11T01:03:32.814Z,100671.13
2023-04-11T01:06:35.548Z,100662.16
2023-04-11T01:09:38.196Z,100655.72
2023-04-11T01:12:41.210Z,100643.28
2023-04-11T01:15:43.507Z,100646.78
2023-04-11T01:18:46.058Z,100647.78
2023-04-11T01:21:49.452Z,100645.25
2023-04-11T01:24:52.175Z,100630.53
2023-04-11T01:27:56.490Z,100643.28
2023-04-11T01:30:59.136Z,100644.75
2023-04-11T01:34:02.685Z,100626.94
2023-04-11T01:37:05.075Z,100627.16
2023-04-11T01:40:08.189Z,100635.06
2023-04-11T01:43:11.328Z,100629.84
2023-04-11T01:46:14.539Z,100584.91
2023-04-11T01:49:19.099Z,100630.50
2023-04-11T01:52:22.885Z,100633.81
2023-04-11T01:55:25.432Z,100624.28
2023-04-11T01:58:27.938Z,100616.22
2023-04-11T02:01:30.669Z,100613.06
2023-04-11T02:04:33.592Z,100613.22
2023-04-11T02:07:36.257Z,100603.94
2023-04-11T02:10:38.576Z,100596.94
2023-04-11T02:13:41.119Z,100592.66
2023-04-11T02:16:56.034Z,100595.06
2023-04-11T02:19:58.452Z,100596.88
2023-04-11T02:23:04.383Z,100593.94
2023-04-11T02:26:06.871Z,100587.16
2023-04-11T02:29:09.275Z,100591.50
2023-04-11T02:32:11.807Z,100576.13
2023-04-11T02:35:14.180Z,100575.22
2023-04-11T02:38:16.639Z,100546.09
2023-04-11T02:41:19.025Z,100576.34
2023-04-11T02:44:22.689Z,100561.31
2023-04-11T02:47:25.473Z,100562.22
2023-04-11T02:50:29.742Z,100546.78
2023-04-11T02:53:32.207Z,100536.50
2023-04-11T02:56:37.977Z,100539.66
2023-04-11T02:59:40.568Z,100535.13
2023-04-11T03:02:43.611Z,100538.41
2023-04-11T03:05:48.170Z,100527.56
2023-04-11T03:08:55.207Z,100521.84
2023-04-11T03:11:58.039Z,100514.13
2023-04-11T03:15:00.562Z,100516.59
2023-04-11T03:18:03.297Z,100514.63
2023-04-11T03:21:08.198Z,100517.81
2023-04-11T03:24:12.715Z,100517.56
2023-04-11T03:27:16.485Z,100516.16
2023-04-11T03:30:21.070Z,100508.03
2023-04-11T03:33:23.776Z,100509.94
2023-04-11T03:36:30.064Z,100508.84
2023-04-11T03:39:38.231Z,100504.44
2023-04-11T03:42:40.660Z,100486.34
2023-04-11T03:45:46.581Z,100491.44
2023-04-11T03:48:58.019Z,100449.94
2023-04-11T03:52:02.252Z,100484.88
2023-04-11T03:55:06.317Z,100486.34
2023-04-11T03:58:08.986Z,100479.31
2023-04-11T04:01:11.952Z,100492.38
2023-04-11T04:04:15.016Z,100482.28
2023-04-11T04:07:22.411Z,100481.88
2023-04-11T04:10:27.170Z,100480.88
2023-04-11T04:13:30.232Z,100467.97
2023-04-11T04:16:46.099Z,100458.94
2023-04-11T04:19:51.754Z,100466.53
2023-04-11T04:22:54.477Z,100463.38
2023-04-11T04:26:07.089Z,100445.72
2023-04-11T04:29:12.734Z,100442.38
2023-04-11T04:32:28.945Z,100455.31
2023-04-11T04:35:36.227Z,100455.03
2023-04-11T04:38:42.301Z,100455.63
2023-04-11T04:41:50.077Z,100451.50
2023-04-11T04:44:54.226Z,100438.00
2023-04-11T04:47:56.939Z,100442.97
2023-04-11T04:50:59.241Z,100442.41
2023-04-11T04:54:01.899Z,100441.16
2023-04-11T04:57:04.297Z,100433.56
2023-04-11T05:00:12.126Z,100425.13
2023-04-11T05:03:21.012Z,100426.59
2023-04-11T05:06:32.254Z,100419.88
2023-04-11T05:09:36.645Z,100429.75
2023-04-11T05:13:05.213Z,100416.16
2023-04-11T05:16:09.356Z,100411.00
2023-04-11T05:19:11.815Z,100418.28
2023-04-11T05:25:23.260Z,100403.28
2023-04-11T05:28:27.332Z,100399.25
2023-04-11T05:31:30.740Z,100392.94
2023-04-11T05:34:34.526Z,100397.47
2023-04-11T05:37:37.341Z,100393.38
2023-04-11T05:40:40.053Z,100379.53
2023-04-11T05:43:42.817Z,100382.25
2023-04-11T05:46:45.578Z,100385.28
2023-04-11T05:49:48.949Z,100375.84
2023-04-11T05:52:51.296Z,100365.75
2023-04-11T05:55:53.695Z,100361.25
2023-04-11T05:58:56.193Z,100365.50
2023-04-11T06:01:59.701Z,100369.16
2023-04-11T06:05:04.109Z,100370.19
2023-04-11T06:08:07.107Z,100364.91
2023-04-11T06:11:09.740Z,100368.41
2023-04-11T06:14:12.185Z,100334.47
2023-04-11T06:17:14.672Z,100359.91
2023-04-11T06:20:17.185Z,100359.88
2023-04-11T06:23:19.551Z,100348.59
2023-04-11T06:26:21.837Z,100351.38
2023-04-11T06:29:24.187Z,100340.16
2023-04-11T06:32:27.333Z,100336.31
2023-04-11T06:35:30.560Z,100326.56
2023-04-11T06:38:35.010Z,100303.09
2023-04-11T06:41:37.317Z,100314.63
2023-04-11T06:44:39.731Z,100312.19
2023-04-11T06:47:42.272Z,100305.59
2023-04-11T06:50:46.054Z,100298.50
2023-04-11T06:53:48.326Z,100293.47
2023-04-11T06:56:54.007Z,100285.69
2023-04-11T06:59:56.453Z,100274.97
2023-04-11T07:02:59.861Z,100277.50
2023-04-11T07:06:02.633Z,100273.38
2023-04-11T07:09:05.941Z,100269.84
2023-04-11T07:12:08.514Z,100252.31
2023-04-11T07:15:11.342Z,100262.16
2023-04-11T07:18:15.062Z,100255.53
2023-04-11T07:21:17.537Z,100244.56
2023-04-11T07:24:21.217Z,100259.75
2023-04-11T07:27:24.644Z,100252.28
2023-04-11T07:30:27.934Z,100260.81
2023-04-11T07:33:30.471Z,100256.44
2023-04-11T07:36:32.782Z,100251.66
2023-04-11T07:39:35.122Z,100245.25
2023-04-11T07:42:37.413Z,100242.28
2023-04-11T07:45:40.746Z,100242.66
2023-04-11T07:48:43.442Z,100236.19
2023-04-11T07:51:45.855Z,100241.47
2023-04-11T07:54:48.154Z,100239.41
2023-04-11T07:57:50.479Z,100239.69
2023-04-11T08:00:53.738Z,100230.38
2023-04-11T08:03:57.093Z,100227.34
2023-04-11T08:07:00.278Z,100216.94
2023-04-11T08:10:02.606Z,100223.94
2023-04-11T08:13:04.947Z,100219.75
2023-04-11T08:16:09.975Z,100223.66
2023-04-11T08:19:12.597Z,100224.47
2023-04-11T08:22:14.904Z,100197.16
2023-04-11T08:25:20.042Z,100216.63
2023-04-11T08:28:22.861Z,100223.88
2023-04-11T08:31:25.289Z,100213.28
2023-04-11T08:34:27.640Z,100220.59
2023-04-11T08:37:30.925Z,100210.91
2023-04-11T08:40:33.231Z,100205.44
2023-04-11T08:43:36.409Z,100208.19
2023-04-11T08:46:42.785Z,100176.00
2023-04-11T08:49:45.468Z,100204.81
2023-04-11T08:52:49.192Z,100197.13
2023-04-11T08:55:51.502Z,100190.69
2023-04-11T08:58:53.874Z,100182.03
2023-04-11T09:02:09.554Z,100183.03
2023-04-11T09:05:25.759Z,100175.72
2023-04-11T09:08:38.653Z,100167.50
2023-04-11T09:11:55.456Z,100144.97
2023-04-11T09:14:57.956Z,100148.72
2023-04-11T09:18:01.107Z,100153.00
2023-04-11T09:21:08.798Z,100147.16
2023-04-11T09:24:15.658Z,100140.16
2023-04-11T09:27:20.476Z,100147.50
2023-04-11T09:30:27.152Z,100130.81
2023-04-11T09:33:32.051Z,100125.03
2023-04-11T09:36:35.747Z,100121.47
2023-04-11T09:39:38.083Z,100114.53
2023-04-11T09:42:42.086Z,100107.59
2023-04-11T09:45:54.123Z,100095.13
2023-04-11T09:48:57.194Z,100100.97
2023-04-11T09:52:00.677Z,100092.88
2023-04-11T09:55:04.922Z,100080.53
2023-04-11T09:58:10.562Z,100081.50
2023-04-11T10:01:14.294Z,100068.22
2023-04-11T10:04:16.901Z,100059.97
2023-04-11T10:07:20.355Z,100061.59
2023-04-11T10:10:24.445Z,100028.91
2023-04-11T10:13:36.078Z,100046.50
2023-04-11T10:17:20.599Z,100037.28
2023-04-11T10:20:39.265Z,100041.78
2023-04-11T10:24:21.300Z,100039.28
2023-04-11T10:28:10.604Z,100031.53
2023-04-11T10:31:14.312Z,100027.00
2023-04-11T10:34:17.008Z,100016.78
2023-04-11T10:37:21.611Z,100013.19
2023-04-11T10:40:25.327Z,100013.38
2023-04-11T10:43:28.478Z,100009.72
2023-04-11T10:46:30.820Z,99994.78
2023-04-11T10:49:35.204Z,99992.50
2023-04-11T10:52:41.938Z,99992.03
2023-04-11T10:55:47.100Z,99976.88
2023-04-11T10:58:51.936Z,99991.75
2023-04-11T11:02:01.822Z,99982.91
2023-04-11T11:05:15.547Z,99983.53
2023-04-11T11:08:30.666Z,99972.94
2023-04-11T11:11:33.739Z,99978.94
2023-04-11T11:14:41.548Z,99962.03
2023-04-11T11:17:44.980Z,99966.16
2023-04-11T11:20:47.588Z,99961.22
2023-04-11T11:24:02.815Z,99959.00
2023-04-11T11:27:05.415Z,99959.28
2023-04-11T11:30:11.644Z,99951.94
2023-04-11T11:33:18.634Z,99942.34
2023-04-11T11:36:21.246Z,99939.91
2023-04-11T11:39:24.713Z,99941.53
2023-04-11T11:42:28.210Z,99922.06
2023-04-11T11:45:33.102Z,99930.41
2023-04-11T11:48:35.692Z,99932.38
2023-04-11T11:51:48.316Z,99924.09
2023-04-11T11:54:50.908Z,99930.81
2023-04-11T11:57:53.606Z,99918.53
2023-04-11T12:00:56.260Z,99932.72
2023-04-11T12:03:59.422Z,99926.31
2023-04-11T12:07:11.965Z,99920.38
2023-04-11T12:10:16.541Z,99910.13
2023-04-11T12:13:20.910Z,99901.63
2023-04-11T12:16:23.780Z,99913.47
2023-04-11T12:19:27.936Z,99908.88
2023-04-11T12:22:30.334Z,99909.53
2023-04-11T12:25:32.912Z,99903.03
2023-04-11T12:28:35.243Z,99896.44
2023-04-11T12:31:37.628Z,99895.63
2023-04-11T12:34:40.323Z,99890.75
2023-04-11T12:37:43.085Z,99890.56
2023-04-11T12:40:46.502Z,99874.50
2023-04-11T12:43:48.939Z,99886.22
2023-04-11T12:46:51.498Z,99882.38
2023-04-11T12:49:54.759Z,99868.44
2023-04-11T12:52:57.148Z,99866.16
2023-04-11T12:55:59.710Z,99856.22
2023-04-11T12:59:02.368Z,99855.13
2023-04-11T13:02:04.930Z,99837.19
2023-04-11T13:05:09.896Z,99859.31
2023-04-11T13:08:12.802Z,99854.13
2023-04-11T13:11:15.081Z,99848.84
2023-04-11T13:14:17.377Z,99856.28
2023-04-11T13:17:19.684Z,99838.09
2023-04-11T13:20:22.052Z,99839.84
2023-04-11T13:23:24.345Z,99841.38
2023-04-11T13:26:26.767Z,99838.63
2023-04-11T13:29:29.220Z,99842.84
2023-04-11T13:32:32.436Z,99835.13
2023-04-11T13:35:34.970Z,99838.03
2023-04-11T13:38:37.422Z,99833.97
2023-04-11T13:41:40.025Z,99819.88
2023-04-11T13:44:42.499Z,99837.00
2023-04-11T13:47:45.303Z,99820.50
2023-04-11T13:50:47.648Z,99823.66
2023-04-11T13:53:50.091Z,99812.06
2023-04-11T13:56:52.458Z,99812.78
2023-04-11T13:59:54.851Z,99805.59
2023-04-11T14:02:57.335Z,99820.09
2023-04-11T14:06:03.695Z,99811.06
2023-04-11T14:09:06.584Z,99805.06
2023-04-11T14:12:09.057Z,99800.16
2023-04-11T14:15:12.030Z,99795.47
2023-04-11T14:18:14.711Z,99799.00
2023-04-11T14:21:17.269Z,99788.47
2023-04-11T14:24:22.222Z,99796.81
2023-04-11T14:27:25.173Z,99788.28
2023-04-11T14:30:28.169Z,99779.81
2023-04-11T14:33:30.625Z,99774.91
2023-04-11T14:36:33.474Z,99775.09
2023-04-11T14:39:36.222Z,99763.66
2023-04-11T14:42:39.654Z,99763.34
2023-04-11T14:45:42.064Z,99747.53
2023-04-11T14:48:45.096Z,99757.78
2023-04-11T14:51:48.377Z,99739.09
2023-04-11T14:54:51.244Z,99752.09
2023-04-11T14:57:56.050Z,99754.31
2023-04-11T15:00:58.660Z,99745.91
2023-04-11T15:04:01.775Z,99745.16
2023-04-11T15:07:04.940Z,99740.63
2023-04-11T15:10:08.167Z,99736.13
2023-04-11T15:13:11.991Z,99730.38
2023-04-11T15:16:14.632Z,99737.97
2023-04-11T15:19:17.052Z,99736.78
2023-04-11T15:22:19.444Z,99724.22
2023-04-11T15:25:22.697Z,99725.00
2023-04-11T15:28:26.761Z,99737.22
2023-04-11T15:31:29.498Z,99722.00
2023-04-11T15:34:32.303Z,99726.97
2023-04-11T15:37:34.969Z,99707.72
2023-04-11T15:40:37.889Z,99717.31
2023-04-11T15:43:40.559Z,99708.81
2023-04-11T15:46:43.205Z,99707.84
2023-04-11T15:49:46.253Z,99711.25
2023-04-11T15:52:48.679Z,99668.91
2023-04-11T15:55:51.487Z,99712.38
2023-04-11T15:58:53.860Z,99708.41
2023-04-11T16:01:56.482Z,99703.47
2023-04-11T16:05:01.529Z,99692.81
2023-04-11T16:08:05.521Z,99707.50
2023-04-11T16:11:07.908Z,99688.63
2023-04-11T16:14:11.296Z,99706.81
2023-04-11T16:17:19.139Z,99713.91
2023-04-11T16:20:22.476Z,99720.75
2023-04-11T16:23:24.955Z,99715.44
2023-04-11T16:26:27.309Z,99718.16
2023-04-11T16:29:29.769Z,99714.75
2023-04-11T16:32:33.118Z,99718.13
2023-04-11T16:35:36.136Z,99692.34
2023-04-11T16:38:39.243Z,99728.97
2023-04-11T16:41:41.740Z,99746.41
2023-04-11T16:44:44.310Z,99783.84
2023-04-11T16:47:46.671Z,99806.78
2023-04-11T16:50:49.162Z,99799.41
2023-04-11T16:53:53.350Z,99796.25
2023-04-11T16:56:55.911Z,99804.47
2023-04-11T16:59:58.808Z,99816.00
2023-04-11T17:03:01.362Z,99813.72
2023-04-11T17:06:04.083Z,99805.66
2023-04-11T17:09:06.842Z,99818.59
2023-04-11T17:12:09.336Z,99827.72
2023-04-11T17:15:12.298Z,99823.41
2023-04-11T17:18:15.187Z,99823.81
2023-04-11T17:21:17.842Z,99827.59
2023-04-11T17:24:20.572Z,99835.78
2023-04-11T17:27:23.392Z,99836.38
2023-04-11T17:30:26.041Z,99843.09
2023-04-11T17:33:28.628Z,99849.53
2023-04-11T17:36:31.235Z,99841.97
2023-04-11T17:39:33.616Z,99857.84
2023-04-11T17:42:36.106Z,99851.91
2023-04-11T17:45:38.729Z,99852.88
2023-04-11T17:48:42.219Z,99859.97
2023-04-11T17:51:56.389Z,99842.56
2023-04-11T17:55:01.373Z,99871.78
2023-04-11T17:58:03.979Z,99868.53
2023-04-11T18:01:11.241Z,99867.88
2023-04-11T18:04:16.177Z,99789.34
2023-04-11T18:07:18.714Z,99879.75
2023-04-11T18:10:23.286Z,99845.06
2023-04-11T18:13:27.319Z,99873.34
2023-04-11T18:16:29.805Z,99878.19
2023-04-11T18:19:32.202Z,99877.91
2023-04-11T18:22:35.860Z,99872.22
2023-04-11T18:25:38.258Z,99878.66
2023-04-11T18:28:40.961Z,99876.00
2023-04-11T18:31:43.566Z,99883.19
2023-04-11T18:34:46.055Z,99878.94
2023-04-11T18:37:48.646Z,99885.84
2023-04-11T18:40:54.941Z,99900.31
2023-04-11T18:43:59.108Z,99899.28
2023-04-11T18:47:05.576Z,99902.31
2023-04-11T18:50:09.408Z,99922.59
2023-04-11T18:53:13.753Z,99918.91
2023-04-11T18:56:16.917Z,99917.16
2023-04-11T18:59:24.015Z,99919.81
2023-04-11T19:02:27.633Z,99920.72
2023-04-11T19:05:30.789Z,99928.00
2023-04-11T19:08:33.856Z,99929.13
2023-04-11T19:11:38.283Z,99937.31
2023-04-11T19:14:40.703Z,99937.38
2023-04-11T19:17:43.337Z,99938.19
2023-04-11T19:20:46.179Z,99941.69
2023-04-11T19:23:49.707Z,99918.34
2023-04-11T19:26:53.389Z,99892.03
2023-04-11T19:29:57.048Z,99903.63
2023-04-11T19:32:59.537Z,99928.16
2023-04-11T19:36:01.969Z,99926.28
2023-04-11T19:39:04.493Z,99924.97
2023-04-11T19:42:10.810Z,99887.59
2023-04-11T19:45:14.451Z,99905.53
2023-04-11T19:48:17.041Z,99907.66
2023-04-11T19:51:19.428Z,99906.56
2023-04-11T19:54:21.748Z,99893.53
2023-04-11T19:57:25.818Z,99921.53
2023-04-11T20:00:32.023Z,99929.44
2023-04-11T20:03:34.615Z,99933.53
2023-04-11T20:06:37.204Z,99923.72
2023-04-11T20:09:39.783Z,99923.72
2023-04-11T20:12:42.412Z,99938.66
2023-04-11T20:15:45.032Z,99930.50
2023-04-11T20:18:47.402Z,99928.84
2023-04-11T20:21:49.635Z,99928.84
2023-04-11T20:24:52.584Z,99913.16
2023-04-11T20:27:54.927Z,99909.41
2023-04-11T20:30:59.154Z,99920.75
2023-04-11T20:34:01.588Z,99923.44
2023-04-11T20:37:06.793Z,99931.56
2023-04-11T20:40:13.782Z,99925.06
2023-04-11T20:43:17.644Z,99935.13
2023-04-11T20:49:21.320Z,99925.13
2023-04-11T20:52:23.687Z,99918.59
2023-04-11T20:55:26.491Z,99902.06
2023-04-11T20:58:29.057Z,99920.75
2023-04-11T21:01:32.785Z,99919.41
2023-04-11T21:04:35.786Z,99924.81
2023-04-11T21:07:38.598Z,99932.97
2023-04-11T21:10:41.230Z,99931.63
2023-04-11T21:13:43.590Z,99949.81
2023-04-11T21:16:46.102Z,99937.03
2023-04-11T21:19:48.370Z,99948.22
2023-04-11T21:22:55.051Z,99942.78
2023-04-11T21:25:57.362Z,99954.72
2023-04-11T21:28:59.738Z,99955.81
2023-04-11T21:32:02.138Z,99955.56
2023-04-11T21:35:09.613Z,99946.56
2023-04-11T21:38:12.574Z,99953.09
2023-04-11T21:41:14.933Z,99948.44
2023-04-11T21:44:17.375Z,99948.91
2023-04-11T21:47:20.014Z,99943.81
2023-04-11T21:50:22.387Z,99950.56
2023-04-11T21:53:24.701Z,99956.97
2023-04-11T21:56:27.058Z,99942.97
2023-04-11T21:59:29.487Z,99952.81
2023-04-11T22:02:32.251Z,99943.50
2023-04-11T22:05:34.947Z,99957.59
2023-04-11T22:08:39.319Z,99956.81
2023-04-11T22:11:42.368Z,99959.78
2023-04-11T22:14:44.783Z,99958.38
2023-04-11T22:17:50.860Z,99958.09
2023-04-11T22:20:56.011Z,99967.63
2023-04-11T22:24:02.342Z,99957.53
2023-04-11T22:27:06.421Z,99955.44
2023-04-11T22:30:09.183Z,99959.50
2023-04-11T22:33:13.820Z,99948.16
2023-04-11T22:36:17.125Z,99949.78
2023-04-11T22:39:20.340Z,99958.19
2023-04-11T22:42:22.897Z,99969.25
2023-04-11T22:45:25.874Z,99959.28
2023-04-11T22:48:29.826Z,99943.00
2023-04-11T22:51:32.135Z,99960.91
2023-04-11T22:54:35.326Z,99968.78
2023-04-11T22:57:41.472Z,99977.09
2023-04-11T23:00:46.196Z,99971.97
2023-04-11T23:03:48.784Z,99969.81
2023-04-11T23:06:52.150Z,99976.41
2023-04-11T23:09:54.627Z,99976.41
2023-04-11T23:12:56.918Z,99975.28
2023-04-11T23:16:02.547Z,99975.75
2023-04-11T23:19:05.126Z,99972.84
2023-04-11T23:22:07.510Z,99970.63
2023-04-11T23:25:15.362Z,99975.75
2023-04-11T23:28:17.812Z,99964.94
2023-04-11T23:31:20.244Z,99967.53
2023-04-11T23:34:22.629Z,99966.53
2023-04-11T23:37:27.474Z,99963.28
2023-04-11T23:40:30.615Z,99958.63
2023-04-11T23:43:33.246Z,99956.22
2023-04-11T23:46:35.906Z,99945.94
2023-04-11T23:49:38.335Z,99961.94
2023-04-11T23:52:40.827Z,99954.84
2023-04-11T23:55:43.369Z,99945.63
2023-04-11T23:58:45.802Z,99942.66
